• Join FlightAware (Why Join?)
  • Login
  • US Flag 
09:53AM EDT


 

Airport Tracker/Info


-or-


 

Live Flight TrackerFlight Track Log ✈ UAL252 ✈ 25-Jun-2013 ✈ KEWR - KSAN

Flight Track Log - Related Links

Times and Time Zones

All times are in EDT time to prevent confusion due to time zone crossing. See the UAL252 flight status page for this flight to view local times or setup timezone preferences in your user account.

Time Position Orientation Groundspeed Altitude Reporting Facility
EDT Latitude Longitude Course Direction KTS MPH feet Rate Location/Type
11:50AM 40.6667 -74.1833 217° Southwest 167 192 1,300  Level New York TRACON
11:51AM 40.6167 -74.2000 194° South 204 235 2,600 1,500 Climbing New York TRACON
11:52AM 40.6167 -74.2833 270° West 243 280 4,400 2,340 Climbing New York TRACON
11:53AM 40.6834 -74.6435 270° West  Level FlightAware Approximate
11:54AM 40.6834 -74.8025 270° West  Level FlightAware Approximate
11:54AM 40.6175 -74.4292 270° West 250 288 8,900  Level New York Center
11:55AM 40.6833 -74.9615 270° West  Level FlightAware Approximate
11:55AM 40.6292 -74.5200 280° West 271 312 11,100  Level New York Center
11:56AM 40.6583 -75.1084 217° Southwest  Level FlightAware Approximate
11:56AM 40.6417 -74.6519 277° West 318 366 12,300  Level New York Center
11:57AM 40.6542 -74.7703 278° West 353 406 14,500 2,040 Climbing New York Center
11:58AM 40.6681 -74.9133 277° West 358 412 16,500 1,680 Climbing New York Center
11:59AM 40.6819 -75.0536 277° West 380 437 18,000 1,440 Climbing New York Center
12:00PM 40.6400 -75.1714 245° Southwest 383 441 19,400 1,560 Climbing New York Center
12:01PM 40.5808 -75.3014 239° Southwest 402 463 21,100 1,500 Climbing New York Center
12:02PM 40.5236 -75.4317 240° Southwest 413 475 22,500 1,260 Climbing New York Center
12:03PM 40.4556 -75.5742 238° Southwest 419 482 23,700 1,140 Climbing New York Center
12:04PM 40.3936 -75.7089 239° Southwest 424 488 24,800 960 Climbing New York Center
12:05PM 40.3342 -75.8356 238° Southwest 438 504 25,700 960 Climbing New York Center
12:06PM 40.2608 -75.9878 238° Southwest 448 516 26,800 960 Climbing New York Center
12:07PM 40.1917 -76.1322 238° Southwest 459 528 27,700 900 Climbing New York Center
12:08PM 40.1247 -76.2736 238° Southwest 459 528 28,600 900 Climbing New York Center
12:09PM 40.0617 -76.4178 240° Southwest 459 528 29,600 1,080 Climbing New York Center
12:11PM 39.9400 -76.6819 239° Southwest 433 498 31,800 1,080 Climbing Washington Center
12:12PM 39.8719 -76.8189 237° Southwest 453 521 32,800 1,020 Climbing Washington Center
12:13PM 39.8058 -76.9581 238° Southwest 453 521 33,900 900 Climbing Washington Center
12:14PM 39.7417 -77.0972 239° Southwest 453 521 34,700 840 Climbing Washington Center
12:15PM 39.6775 -77.2361 239° Southwest 453 521 35,600 600 Climbing Washington Center
12:16PM 39.6131 -77.3719 238° Southwest 453 521 36,000 180 Climbing Washington Center
12:17PM 39.5464 -77.5131 239° Southwest 453 521 36,000  Level Washington Center
12:18PM 39.4814 -77.6483 238° Southwest 453 521 36,000  Level Washington Center
12:19PM 39.4167 -77.7836 238° Southwest 453 521 36,000  Level Washington Center
12:20PM 39.3556 -77.9242 241° Southwest 453 521 36,000  Level Washington Center
12:21PM 39.3008 -78.0644 243° Southwest 448 516 36,000  Level Washington Center
12:22PM 39.2433 -78.2100 243° Southwest 448 516 36,000  Level Washington Center
12:23PM 39.1861 -78.3497 242° Southwest 448 516 36,000  Level Washington Center
12:24PM 39.1286 -78.4922 243° Southwest 448 516 36,000  Level Washington Center
12:25PM 39.0731 -78.6342 243° Southwest 448 516 36,000  Level Washington Center
12:26PM 39.0172 -78.7761 243° Southwest 448 516 36,000  Level Washington Center
12:27PM 38.9572 -78.9150 241° Southwest 448 516 36,000  Level Washington Center
12:28PM 38.9011 -79.0567 243° Southwest 448 516 36,000  Level Washington Center
12:29PM 38.8469 -79.1981 244° Southwest 448 516 36,000  Level Washington Center
12:30PM 38.8172 -79.3511 256° West 448 516 36,000  Level Washington Center
12:31PM 38.7997 -79.5075 262° West 448 516 36,000  Level Washington Center
12:32PM 38.7819 -79.6664 262° West 448 516 36,000  Level Washington Center
12:33PM 38.7661 -79.8225 263° West 448 516 36,000  Level Washington Center
12:34PM 38.7439 -79.9894 260° West 440 506 36,000  Level Indianapolis Center
12:35PM 38.7272 -80.1447 262° West 441 507 36,000  Level Indianapolis Center
12:36PM 38.7086 -80.3011 261° West 442 509 36,000  Level Indianapolis Center
12:37PM 38.6908 -80.4558 262° West 441 507 36,000  Level Indianapolis Center
12:38PM 38.6697 -80.6422 262° West 441 507 36,000  Level Indianapolis Center
12:39PM 38.6511 -80.7983 261° West 444 511 36,000  Level Indianapolis Center
12:40PM 38.6331 -80.9536 262° West 441 507 36,000  Level Indianapolis Center
12:41PM 38.6139 -81.1083 261° West 441 507 36,000  Level Indianapolis Center
12:42PM 38.5950 -81.2628 261° West 436 502 36,000  Level Indianapolis Center
12:43PM 38.5744 -81.4189 260° West 438 504 36,000  Level Indianapolis Center
12:44PM 38.5550 -81.5808 261° West 446 513 36,000  Level Indianapolis Center
12:45PM 38.5367 -81.7392 262° West 444 511 36,000  Level Indianapolis Center
12:46PM 38.5169 -81.8942 261° West 441 507 36,000  Level Indianapolis Center
12:47PM 38.4972 -82.0506 261° West 444 511 36,000  Level Indianapolis Center
12:48PM 38.4769 -82.2042 260° West 440 506 36,000  Level Indianapolis Center
12:49PM 38.4564 -82.3572 260° West 437 503 36,000  Level Indianapolis Center
12:50PM 38.4339 -82.5294 261° West 432 497 36,000  Level Indianapolis Center
12:51PM 38.4139 -82.6797 260° West 429 494 36,000  Level Indianapolis Center
12:52PM 38.3933 -82.8289 260° West 428 493 36,000  Level Indianapolis Center
12:53PM 38.3719 -82.9792 260° West 430 495 36,000  Level Indianapolis Center
12:55PM 38.3481 -83.1553 260° West 433 498 36,000  Level Indianapolis Center
12:56PM 38.3275 -83.3050 260° West 431 496 36,000  Level Indianapolis Center
12:57PM 38.3053 -83.4536 259° West 428 493 36,000  Level Indianapolis Center
12:58PM 38.2839 -83.6047 260° West 432 497 36,000  Level Indianapolis Center
12:59PM 38.2625 -83.7567 260° West 437 503 36,000  Level Indianapolis Center
01:00PM 38.2397 -83.9128 260° West 443 510 36,000  Level Indianapolis Center
01:01PM 38.2131 -84.0925 259° West 446 513 36,000  Level Indianapolis Center
01:02PM 38.1897 -84.2494 259° West 451 519 36,000  Level Indianapolis Center
01:03PM 38.1664 -84.4056 259° West 451 519 36,000  Level Indianapolis Center
01:04PM 38.1431 -84.5592 259° West 445 512 36,000  Level Indianapolis Center
01:05PM 38.1192 -84.7128 259° West 444 511 36,000  Level Indianapolis Center
01:06PM 38.0956 -84.8644 259° West 440 506 36,000  Level Indianapolis Center
01:07PM 38.0672 -85.0431 259° West 439 505 36,000  Level Indianapolis Center
01:08PM 38.0436 -85.1961 259° West 443 510 36,000  Level Indianapolis Center
01:09PM 38.0211 -85.3433 259° West 445 512 36,000  Level Indianapolis Center
01:10PM 37.9964 -85.4994 259° West 449 517 36,000  Level Indianapolis Center
01:11PM 37.9708 -85.6542 258° West 446 513 36,000  Level Indianapolis Center
01:12PM 37.9458 -85.8092 258° West 448 516 36,000  Level Indianapolis Center
01:13PM 37.9208 -85.9636 258° West 447 514 36,000  Level Indianapolis Center
01:14PM 37.8894 -86.1500 258° West 448 516 36,000  Level Indianapolis Center
01:15PM 37.8647 -86.3044 259° West 446 513 36,000  Level Indianapolis Center
01:16PM 37.8386 -86.4578 258° West 444 511 36,000  Level Indianapolis Center
01:17PM 37.8119 -86.6128 258° West 446 513 36,000  Level Indianapolis Center
01:18PM 37.7853 -86.7689 258° West 448 516 36,000  Level Indianapolis Center
01:19PM 37.7578 -86.9250 257° West 450 518 36,000  Level Indianapolis Center
01:20PM 37.7303 -87.0822 258° West 452 520 36,000  Level Indianapolis Center
01:21PM 37.7019 -87.2458 258° West 452 520 36,000  Level Indianapolis Center
01:22PM 37.6750 -87.3994 258° West 448 516 36,000  Level Indianapolis Center
01:23PM 37.6472 -87.5519 257° West 444 511 36,000  Level Indianapolis Center
01:24PM 37.6139 -87.7328 257° West 449 517 36,000  Level Indianapolis Center
01:25PM 37.5864 -87.8869 257° West 449 517 36,000  Level Indianapolis Center
01:26PM 37.5586 -88.0422 257° West 451 519 36,000  Level Indianapolis Center
01:27PM 37.5303 -88.1972 257° West 451 519 36,000  Level Indianapolis Center
01:29PM 37.5022 -88.3494 257° West 451 519 36,000  Level Indianapolis Center
01:29PM 37.4881 -88.4517 260° West 451 519 36,000  Level Memphis Center
01:30PM 37.4569 -88.6039 256° West 451 519 36,000  Level Memphis Center
01:31PM 37.4297 -88.7558 257° West 451 519 36,000  Level Memphis Center
01:32PM 37.4006 -88.9081 256° West 451 519 36,000  Level Memphis Center
01:33PM 37.3689 -89.0625 256° West 451 519 36,000  Level Memphis Center
01:34PM 37.3392 -89.2142 256° West 451 519 36,000  Level Memphis Center
01:35PM 37.3111 -89.3608 257° West 451 519 36,000  Level Memphis Center
01:36PM 37.2811 -89.5122 256° West 451 519 36,000  Level Memphis Center
01:37PM 37.2508 -89.6611 256° West 451 519 36,000  Level Memphis Center
01:38PM 37.2203 -89.8125 256° West 451 519 36,000  Level Memphis Center
01:39PM 37.1897 -89.9611 256° West 451 519 36,000  Level Memphis Center
01:40PM 37.1589 -90.1122 256° West 451 519 36,100  Climbing Memphis Center
01:41PM 37.1278 -90.2633 256° West 456 525 36,000 -60 Descending Memphis Center
01:42PM 37.0944 -90.4142 255° West 456 525 36,000  Level Memphis Center
01:43PM 37.0650 -90.5622 256° West 456 525 36,000  Level Memphis Center
01:44PM 37.0314 -90.7156 255° West 456 525 36,000  Level Memphis Center
01:45PM 37.0017 -90.8633 256° West 456 525 36,000  Level Memphis Center
01:46PM 36.9897 -90.9197 255° West 447 514 36,000  Level Kansas City Center
01:47PM 36.9572 -91.0683 255° West 445 512 36,000  Level Kansas City Center
01:48PM 36.9228 -91.2289 255° West 448 516 36,000  Level Kansas City Center
01:49PM 36.8917 -91.3797 256° West 447 514 36,000  Level Kansas City Center
01:50PM 36.8594 -91.5297 255° West 447 514 36,000  Level Kansas City Center
01:51PM 36.8197 -91.7114 255° West 449 517 36,000  Level Kansas City Center
01:52PM 36.7867 -91.8600 255° West 446 513 36,000  Level Kansas City Center
01:53PM 36.7542 -92.0047 254° West 437 503 36,000  Level Kansas City Center
01:54PM 36.7222 -92.1522 255° West 438 504 36,000  Level Kansas City Center
01:55PM 36.6892 -92.2992 254° West 439 505 36,000  Level Kansas City Center
01:56PM 36.6556 -92.4469 254° West 441 507 36,000  Level Kansas City Center
01:57PM 36.6156 -92.6242 254° West 450 518 36,000  Level Memphis Center
01:58PM 36.5769 -92.7883 254° West 455 524 36,000  Level Memphis Center
01:59PM 36.5517 -92.9064 255° West 445 512 36,000  Level Kansas City Center
02:00PM 36.5178 -93.0511 254° West 442 509 36,000  Level Kansas City Center
02:01PM 36.4769 -93.2261 254° West 441 507 36,000  Level Kansas City Center
02:02PM 36.4436 -93.3700 254° West 439 505 36,000  Level Kansas City Center
02:03PM 36.4094 -93.5175 254° West 443 510 36,000  Level Kansas City Center
02:04PM 36.3750 -93.6664 254° West 448 516 36,000  Level Kansas City Center
02:05PM 36.3403 -93.8119 254° West 455 524 36,000  Level Memphis Center
02:06PM 36.3025 -93.9622 253° West 448 516 36,000  Level Memphis Center
02:07PM 36.2669 -94.1100 253° West 453 521 36,000  Level Memphis Center
02:08PM 36.2311 -94.2600 254° West 453 521 36,000  Level Memphis Center
02:09PM 36.1950 -94.4050 253° West 453 521 36,000  Level Memphis Center
02:10PM 36.1531 -94.5764 253° West 445 512 36,000  Level Kansas City Center
02:12PM 36.1011 -94.7797 253° West 442 509 36,000  Level Kansas City Center
02:13PM 36.0653 -94.9247 253° West 439 505 36,000  Level Kansas City Center
02:14PM 36.0283 -95.0711 253° West 440 506 36,000  Level Kansas City Center
02:16PM 35.9531 -95.3650 253° West 445 512 36,000  Level Kansas City Center
02:17PM 35.9164 -95.5119 253° West 445 512 36,000  Level Kansas City Center
02:18PM 35.8781 -95.6597 252° West 448 516 36,000  Level Kansas City Center
02:19PM 35.8403 -95.8061 252° West 447 514 36,000  Level Kansas City Center
02:20PM 35.8031 -95.9533 253° West 448 516 36,000  Level Kansas City Center
02:21PM 35.7633 -96.1003 252° West 446 513 36,000  Level Kansas City Center
02:22PM 35.7181 -96.2719 252° West 442 509 36,000  Level Kansas City Center
02:23PM 35.6806 -96.4139 252° West 439 505 36,000  Level Kansas City Center
02:24PM 35.6436 -96.5558 252° West 438 504 36,000  Level Kansas City Center
02:25PM 35.6053 -96.6994 252° West 440 506 36,000  Level Kansas City Center
02:26PM 35.5672 -96.8417 252° West 440 506 36,000  Level Kansas City Center
02:27PM 35.5264 -96.9928 252° West 459 528 36,000  Level Fort Worth Center
02:28PM 35.4894 -97.1306 252° West 454 522 36,000  Level Fort Worth Center
02:29PM 35.4478 -97.2911 252° West 444 511 36,000  Level Fort Worth Center
02:30PM 35.4083 -97.4314 251° West 446 513 36,000  Level Fort Worth Center
02:31PM 35.3686 -97.5842 252° West 453 521 36,000  Level Fort Worth Center
02:32PM 35.3536 -97.7267 263° West 440 506 36,000  Level Fort Worth Center
02:33PM 35.3533 -97.8717 270° West 425 489 36,000  Level Fort Worth Center
02:34PM 35.3525 -98.0142 270° West 425 489 36,000  Level Fort Worth Center
02:35PM 35.3478 -98.1592 268° West 425 489 36,000  Level Fort Worth Center
02:36PM 35.3467 -98.3069 270° West 425 489 36,000  Level Fort Worth Center
02:37PM 35.3436 -98.4519 269° West 431 496 36,000  Level Fort Worth Center
02:38PM 35.3425 -98.5664 269° West 431 496 36,000  Level Fort Worth Center
02:39PM 35.3367 -98.7292 268° West 431 496 36,100  Climbing Fort Worth Center
02:40PM 35.3350 -98.8819 269° West 441 507 36,000 -60 Descending Fort Worth Center
02:41PM 35.3289 -99.0269 267° West 441 507 36,000  Level Fort Worth Center
02:42PM 35.3269 -99.1744 269° West 435 501 36,000  Level Fort Worth Center
02:43PM 35.3228 -99.3244 268° West 440 506 36,000  Level Fort Worth Center
02:44PM 35.3200 -99.4378 268° West 434 499 36,000  Level Albuquerque Center
02:45PM 35.3161 -99.5850 268° West 431 496 36,000  Level Albuquerque Center
02:46PM 35.3117 -99.7328 268° West 432 497 36,000  Level Albuquerque Center
02:47PM 35.3072 -99.9097 268° West 431 496 36,000  Level Albuquerque Center
02:48PM 35.3011 -100.0572 267° West 432 497 36,000  Level Albuquerque Center
02:49PM 35.2978 -100.2058 268° West 435 501 36,000  Level Albuquerque Center
02:50PM 35.2914 -100.3531 267° West 433 498 36,000  Level Albuquerque Center
02:51PM 35.2861 -100.4992 268° West 430 495 36,000  Level Albuquerque Center
02:52PM 35.2811 -100.6450 268° West 428 493 36,000  Level Albuquerque Center
02:53PM 35.2742 -100.8108 267° West 430 495 36,000  Level Albuquerque Center
02:54PM 35.2683 -100.9569 267° West 431 496 36,000  Level Albuquerque Center
02:55PM 35.2617 -101.1028 267° West 431 496 36,000  Level Albuquerque Center
02:56PM 35.2556 -101.2481 267° West 430 495 36,000  Level Albuquerque Center
02:57PM 35.2508 -101.4075 268° West 431 496 36,000  Level Albuquerque Center
02:58PM 35.2447 -101.5544 267° West 431 496 36,000  Level Albuquerque Center
02:59PM 35.2339 -101.7094 265° West 429 494 36,000  Level Albuquerque Center
03:00PM 35.2322 -101.8561 269° West 428 493 36,000  Level Albuquerque Center
03:01PM 35.2283 -101.9897 268° West 428 493 36,000  Level Albuquerque Center
03:02PM 35.2256 -102.1353 269° West 429 494 36,000  Level Albuquerque Center
03:03PM 35.2214 -102.3089 268° West 427 491 36,000  Level Albuquerque Center
03:04PM 35.2178 -102.4542 268° West 427 491 36,000  Level Albuquerque Center
03:05PM 35.2139 -102.5986 268° West 427 491 36,000  Level Albuquerque Center
03:07PM 35.2100 -102.7419 268° West 425 489 36,000  Level Albuquerque Center
03:08PM 35.2061 -102.8847 268° West 422 486 36,000  Level Albuquerque Center
03:09PM 35.2019 -103.0456 268° West 422 486 36,000  Level Albuquerque Center
03:10PM 35.1969 -103.1900 268° West 422 486 36,000  Level Albuquerque Center
03:11PM 35.1919 -103.3356 268° West 424 488 36,000  Level Albuquerque Center
03:12PM 35.1878 -103.4806 268° West 424 488 36,000  Level Albuquerque Center
03:13PM 35.1822 -103.6264 267° West 425 489 36,000  Level Albuquerque Center
03:14PM 35.1772 -103.7731 268° West 426 490 36,000  Level Albuquerque Center
03:15PM 35.1725 -103.9189 268° West 427 491 36,000  Level Albuquerque Center
03:16PM 35.1681 -104.0647 268° West 428 493 36,000  Level Albuquerque Center
03:17PM 35.1636 -104.2086 268° West 426 490 36,000  Level Albuquerque Center
03:18PM 35.1572 -104.3797 267° West 423 487 36,000  Level Albuquerque Center
03:19PM 35.1514 -104.5239 267° West 424 488 36,000  Level Albuquerque Center
03:20PM 35.1450 -104.6567 267° West 426 490 36,000  Level Albuquerque Center
03:21PM 35.1383 -104.8236 267° West 420 483 36,000  Level Albuquerque Center
03:22PM 35.1331 -104.9678 267° West 421 484 36,000  Level Albuquerque Center
03:23PM 35.1272 -105.1128 267° West 423 487 36,000  Level Albuquerque Center
03:24PM 35.1217 -105.2572 267° West 422 486 36,000  Level Albuquerque Center
03:25PM 35.1150 -105.4042 267° West 427 491 36,000  Level Albuquerque Center
03:26PM 35.1097 -105.5478 267° West 423 487 36,000  Level Albuquerque Center
03:27PM 35.1025 -105.6931 267° West 424 488 36,000  Level Albuquerque Center
03:28PM 35.0964 -105.8378 267° West 424 488 36,000  Level Albuquerque Center
03:29PM 35.0881 -105.9953 266° West 424 488 36,000  Level Albuquerque Center
03:30PM 35.0803 -106.1400 266° West 426 490 36,000  Level Albuquerque Center
03:31PM 35.0725 -106.2856 266° West 430 495 36,100  Climbing Albuquerque Center
03:32PM 35.0642 -106.4303 266° West 429 494 36,000 -120 Descending Albuquerque Center
03:33PM 35.0564 -106.5747 266° West 427 491 35,900 -60 Descending Albuquerque Center
03:34PM 35.0472 -106.7214 266° West 429 494 35,900  Level Albuquerque Center
03:35PM 35.0422 -106.8903 268° West 425 489 36,000  Climbing Albuquerque Center
03:36PM 35.0381 -107.0475 268° West 431 496 36,000  Level Albuquerque Center
03:37PM 35.0350 -107.1942 269° West 433 498 36,000  Level Albuquerque Center
03:38PM 35.0306 -107.3239 268° West 438 504 36,000  Level Albuquerque Center
03:39PM 35.0258 -107.4706 268° West 433 498 36,000  Level Albuquerque Center
03:40PM 35.0217 -107.6500 268° West 441 507 36,000  Level Albuquerque Center
03:41PM 35.0175 -107.7956 268° West 434 499 36,000  Level Albuquerque Center
03:43PM 35.0100 -107.9417 266° West 431 496 36,000  Level Albuquerque Center
03:44PM 35.0050 -108.0875 268° West 432 497 36,000  Level Albuquerque Center
03:45PM 35.0014 -108.2342 268° West 431 496 36,000  Level Albuquerque Center
03:46PM 34.9975 -108.3797 268° West 432 497 36,000  Level Albuquerque Center
03:47PM 34.9911 -108.5258 267° West 432 497 36,000  Level Albuquerque Center
03:48PM 34.9847 -108.7008 267° West 431 496 36,000  Level Albuquerque Center
03:49PM 34.9786 -108.8464 267° West 431 496 36,000  Level Albuquerque Center
03:50PM 34.9725 -108.9925 267° West 431 496 36,000  Level Albuquerque Center
03:51PM 34.9672 -109.1375 267° West 431 496 36,000  Level Albuquerque Center
03:52PM 34.9564 -109.2819 265° West 430 495 36,000  Level Albuquerque Center
03:53PM 34.9469 -109.4258 265° West 428 493 36,000  Level Albuquerque Center
03:54PM 34.9372 -109.5967 266° West 428 493 36,000  Level Albuquerque Center
03:55PM 34.9267 -109.7389 265° West 427 491 36,000  Level Albuquerque Center
03:56PM 34.9156 -109.8836 265° West 432 497 36,000  Level Albuquerque Center
03:57PM 34.9053 -110.0278 265° West 433 498 36,000  Level Albuquerque Center
03:58PM 34.8953 -110.1658 265° West 433 498 36,000  Level Albuquerque Center
03:59PM 34.8822 -110.3394 265° West 431 496 36,000  Level Albuquerque Center
04:00PM 34.8708 -110.4861 265° West 435 501 36,000  Level Albuquerque Center
04:01PM 34.8603 -110.6314 265° West 434 499 36,000  Level Albuquerque Center
04:02PM 34.8489 -110.7756 265° West 431 496 36,000  Level Albuquerque Center
04:03PM 34.8369 -110.9214 264° West 434 499 36,000  Level Albuquerque Center
04:04PM 34.8247 -111.0678 264° West 436 502 36,000  Level Albuquerque Center
04:05PM 34.8103 -111.2425 264° West 435 501 36,000  Level Albuquerque Center
04:06PM 34.7983 -111.3889 264° West 436 502 36,000  Level Albuquerque Center
04:07PM 34.7861 -111.5350 264° West 437 503 36,000  Level Albuquerque Center
04:08PM 34.7739 -111.6817 264° West 438 504 36,000  Level Albuquerque Center
04:09PM 34.7603 -111.8267 264° West 436 502 36,000  Level Albuquerque Center
04:10PM 34.7478 -111.9719 264° West 435 501 36,000  Level Albuquerque Center
04:11PM 34.7325 -112.1458 264° West 434 499 36,000  Level Albuquerque Center
04:12PM 34.7183 -112.2911 263° West 435 501 36,000 -180 Level Albuquerque Center
04:13PM 34.7056 -112.4400 264° West 433 498 35,700 -420 Descending Albuquerque Center
04:14PM 34.6756 -112.5828 256° West 435 501 35,200 -540 Descending Albuquerque Center
04:15PM 34.6378 -112.7233 252° West 439 505 34,700 -540 Descending Albuquerque Center
04:16PM 34.6006 -112.8653 252° West 441 507 34,200 -360 Descending Albuquerque Center
04:18PM 34.5631 -113.0072 252° West 443 510 34,000 -120 Descending Albuquerque Center
04:19PM 34.5158 -113.1778 251° West 444 511 34,000  Level Albuquerque Center
04:20PM 34.4778 -113.3206 252° West 445 512 34,000  Level Albuquerque Center
04:21PM 34.4406 -113.4636 253° West 446 513 34,000  Level Albuquerque Center
04:22PM 34.4031 -113.5972 251° West 446 513 34,000  Level Albuquerque Center
04:23PM 34.3600 -113.7508 251° West 446 513 34,000  Level Albuquerque Center
04:24PM 34.3200 -113.8939 251° West 447 514 34,000  Level Albuquerque Center
04:25PM 34.3008 -114.0403 261° West 445 512 34,000 -240 Level Albuquerque Center
04:26PM 34.2953 -114.2183 268° West 442 509 33,600 -600 Descending Albuquerque Center
04:27PM 34.2911 -114.3675 268° West 443 510 32,800 -840 Descending Albuquerque Center
04:28PM 34.2872 -114.5158 268° West 443 510 32,000 -840 Descending Albuquerque Center
04:29PM 34.2564 -114.6781 257° West 431 496 31,000 -720 Descending Los Angeles Center
04:30PM 34.2014 -114.7750 236° Southwest 437 503 30,400 -540 Descending Los Angeles Center
04:31PM 34.1183 -114.9178 235° Southwest 434 499 29,900 -240 Descending Los Angeles Center
04:32PM 34.0489 -115.0361 235° Southwest 432 497 30,000  Climbing Los Angeles Center
04:33PM 33.9672 -115.1794 236° Southwest 433 498 29,900 -60 Descending Los Angeles Center
04:34PM 33.8972 -115.2967 234° Southwest 433 498 29,900 -180 Level Los Angeles Center
04:35PM 33.8278 -115.4161 235° Southwest 436 502 29,600 -540 Descending Los Angeles Center
04:36PM 33.7589 -115.5331 235° Southwest 430 495 28,900 -720 Descending Los Angeles Center
04:37PM 33.6903 -115.6494 235° Southwest 427 491 28,200 -720 Descending Los Angeles Center
04:38PM 33.6219 -115.7647 235° Southwest 424 488 27,500 -780 Descending Los Angeles Center
04:39PM 33.5408 -115.9017 235° Southwest 420 483 26,700 -1,200 Descending Los Angeles Center
04:40PM 33.4722 -116.0139 234° Southwest 417 480 25,100 -1,860 Descending Los Angeles Center
04:41PM 33.4000 -116.0800 217° Southwest 410 472 23,000 -2,400 Descending Los Angeles Center
04:42PM 33.2942 -116.1789 218° Southwest 403 464 20,200 -2,580 Descending Los Angeles Center
04:43PM 33.2081 -116.2592 218° Southwest 398 458 17,700 -2,400 Descending Los Angeles Center
04:45PM 33.1094 -116.3489 217° Southwest 381 438 14,800 -2,520 Descending Los Angeles Center
04:46PM 33.0122 -116.4375 217° Southwest 367 422 12,000 -1,980 Descending Los Angeles Center
04:47PM 32.9372 -116.4978 214° Southwest 332 382 10,800 -1,140 Descending Los Angeles Center
04:48PM 32.8906 -116.5756 234° Southwest 313 360 9,700 -1,260 Descending Los Angeles Center
04:49PM 32.8442 -116.6517 234° Southwest 294 338 8,300 -1,440 Descending Los Angeles Center
04:50PM 32.7875 -116.7450 234° Southwest 292 336 6,800 -1,320 Descending Los Angeles Center
04:51PM 32.7425 -116.8181 234° Southwest 282 325 5,600 -900 Descending Los Angeles Center
04:52PM 32.7000 -116.8833 232° Southwest 259 298 5,000 -660 Descending Southern California TRACON
04:53PM 32.7000 -116.9667 270° West 218 251 4,400 -900 Descending Southern California TRACON
04:54PM 32.7000 -117.0333 270° West 188 216 3,300 -1,140 Descending Southern California TRACON